sensor_id;sensor_type;location;lat;lon;timestamp;P1;durP1;ratioP1;P2;durP2;ratioP2
30020;SDS011;16861;52.294;7.760;2023-01-16T00:02:25;5.43;;;1.85;;
30020;SDS011;16861;52.294;7.760;2023-01-16T00:04:52;3.10;;;1.50;;
30020;SDS011;16861;52.294;7.760;2023-01-16T00:07:18;7.00;;;1.48;;
30020;SDS011;16861;52.294;7.760;2023-01-16T00:09:45;7.35;;;1.95;;
30020;SDS011;16861;52.294;7.760;2023-01-16T00:12:11;3.88;;;1.50;;
30020;SDS011;16861;52.294;7.760;2023-01-16T00:14:38;4.63;;;1.38;;
30020;SDS011;16861;52.294;7.760;2023-01-16T00:17:04;6.90;;;1.77;;
30020;SDS011;16861;52.294;7.760;2023-01-16T00:19:33;5.93;;;1.63;;
30020;SDS011;16861;52.294;7.760;2023-01-16T00:22:00;5.88;;;1.77;;
30020;SDS011;16861;52.294;7.760;2023-01-16T00:24:26;8.57;;;1.60;;
30020;SDS011;16861;52.294;7.760;2023-01-16T00:26:53;3.65;;;1.38;;
30020;SDS011;16861;52.294;7.760;2023-01-16T00:29:19;4.28;;;1.58;;
30020;SDS011;16861;52.294;7.760;2023-01-16T00:31:46;5.80;;;1.60;;
30020;SDS011;16861;52.294;7.760;2023-01-16T00:34:13;4.22;;;1.10;;
30020;SDS011;16861;52.294;7.760;2023-01-16T00:36:39;3.80;;;1.17;;
30020;SDS011;16861;52.294;7.760;2023-01-16T00:39:06;3.40;;;1.17;;
30020;SDS011;16861;52.294;7.760;2023-01-16T00:41:33;2.65;;;1.00;;
30020;SDS011;16861;52.294;7.760;2023-01-16T00:43:59;2.75;;;0.75;;
30020;SDS011;16861;52.294;7.760;2023-01-16T00:46:26;3.58;;;1.40;;
30020;SDS011;16861;52.294;7.760;2023-01-16T00:48:55;3.70;;;1.02;;
30020;SDS011;16861;52.294;7.760;2023-01-16T00:51:23;5.03;;;1.33;;
30020;SDS011;16861;52.294;7.760;2023-01-16T00:56:34;2.83;;;1.38;;
30020;SDS011;16861;52.294;7.760;2023-01-16T00:59:00;5.68;;;1.30;;
30020;SDS011;16861;52.294;7.760;2023-01-16T01:01:26;4.10;;;1.40;;
30020;SDS011;16861;52.294;7.760;2023-01-16T01:03:53;6.65;;;1.63;;
30020;SDS011;16861;52.294;7.760;2023-01-16T01:06:19;7.25;;;1.38;;
30020;SDS011;16861;52.294;7.760;2023-01-16T01:08:46;4.25;;;1.17;;
30020;SDS011;16861;52.294;7.760;2023-01-16T01:11:13;4.90;;;1.23;;
30020;SDS011;16861;52.294;7.760;2023-01-16T01:13:40;3.85;;;1.40;;
30020;SDS011;16861;52.294;7.760;2023-01-16T01:16:08;2.97;;;1.10;;
30020;SDS011;16861;52.294;7.760;2023-01-16T01:18:35;6.55;;;1.63;;
30020;SDS011;16861;52.294;7.760;2023-01-16T01:21:02;5.85;;;1.15;;
30020;SDS011;16861;52.294;7.760;2023-01-16T01:23:29;3.35;;;1.30;;
30020;SDS011;16861;52.294;7.760;2023-01-16T01:25:56;4.00;;;1.40;;
30020;SDS011;16861;52.294;7.760;2023-01-16T01:28:22;3.05;;;1.33;;
30020;SDS011;16861;52.294;7.760;2023-01-16T01:30:48;2.55;;;1.00;;
30020;SDS011;16861;52.294;7.760;2023-01-16T01:33:15;6.57;;;1.20;;
30020;SDS011;16861;52.294;7.760;2023-01-16T01:35:41;3.03;;;1.15;;
30020;SDS011;16861;52.294;7.760;2023-01-16T01:38:07;7.72;;;1.33;;
30020;SDS011;16861;52.294;7.760;2023-01-16T01:40:34;3.83;;;1.33;;
30020;SDS011;16861;52.294;7.760;2023-01-16T01:43:00;6.38;;;1.60;;
30020;SDS011;16861;52.294;7.760;2023-01-16T01:45:28;6.57;;;1.60;;
30020;SDS011;16861;52.294;7.760;2023-01-16T01:47:57;4.07;;;1.80;;
30020;SDS011;16861;52.294;7.760;2023-01-16T01:53:13;3.72;;;1.40;;
30020;SDS011;16861;52.294;7.760;2023-01-16T01:55:44;3.53;;;1.25;;
30020;SDS011;16861;52.294;7.760;2023-01-16T01:58:13;5.15;;;1.35;;
30020;SDS011;16861;52.294;7.760;2023-01-16T02:00:48;2.08;;;0.93;;
30020;SDS011;16861;52.294;7.760;2023-01-16T02:03:21;2.45;;;1.10;;
30020;SDS011;16861;52.294;7.760;2023-01-16T02:05:54;1.42;;;0.82;;
30020;SDS011;16861;52.294;7.760;2023-01-16T02:08:25;3.45;;;1.17;;
30020;SDS011;16861;52.294;7.760;2023-01-16T02:10:56;2.25;;;0.85;;
30020;SDS011;16861;52.294;7.760;2023-01-16T02:13:27;4.85;;;1.15;;
30020;SDS011;16861;52.294;7.760;2023-01-16T02:15:55;1.60;;;0.90;;
30020;SDS011;16861;52.294;7.760;2023-01-16T02:18:41;1.63;;;1.02;;
30020;SDS011;16861;52.294;7.760;2023-01-16T02:29:39;2.38;;;1.35;;
30020;SDS011;16861;52.294;7.760;2023-01-16T02:40:39;2.72;;;1.38;;
30020;SDS011;16861;52.294;7.760;2023-01-16T02:43:24;2.17;;;1.40;;
30020;SDS011;16861;52.294;7.760;2023-01-16T02:48:48;3.50;;;1.50;;
30020;SDS011;16861;52.294;7.760;2023-01-16T02:54:04;5.32;;;1.83;;
30020;SDS011;16861;52.294;7.760;2023-01-16T02:56:41;6.75;;;1.77;;
30020;SDS011;16861;52.294;7.760;2023-01-16T02:59:12;2.55;;;1.67;;
30020;SDS011;16861;52.294;7.760;2023-01-16T03:01:40;2.70;;;1.50;;
30020;SDS011;16861;52.294;7.760;2023-01-16T03:10:05;2.50;;;1.30;;
30020;SDS011;16861;52.294;7.760;2023-01-16T03:15:34;4.68;;;1.33;;
30020;SDS011;16861;52.294;7.760;2023-01-16T03:18:22;2.20;;;0.80;;
30020;SDS011;16861;52.294;7.760;2023-01-16T03:23:54;2.58;;;1.00;;
30020;SDS011;16861;52.294;7.760;2023-01-16T03:26:30;5.22;;;1.35;;
30020;SDS011;16861;52.294;7.760;2023-01-16T03:29:47;2.05;;;1.30;;
30020;SDS011;16861;52.294;7.760;2023-01-16T03:35:30;2.53;;;1.17;;
30020;SDS011;16861;52.294;7.760;2023-01-16T03:37:41;2.33;;;1.08;;
30020;SDS011;16861;52.294;7.760;2023-01-16T03:40:26;5.82;;;1.73;;
30020;SDS011;16861;52.294;7.760;2023-01-16T03:43:30;5.25;;;1.58;;
30020;SDS011;16861;52.294;7.760;2023-01-16T03:46:01;5.72;;;1.90;;
30020;SDS011;16861;52.294;7.760;2023-01-16T03:51:21;5.78;;;1.90;;
30020;SDS011;16861;52.294;7.760;2023-01-16T03:53:55;4.57;;;1.63;;
30020;SDS011;16861;52.294;7.760;2023-01-16T03:56:29;1.98;;;1.77;;
30020;SDS011;16861;52.294;7.760;2023-01-16T03:59:01;4.90;;;1.70;;
30020;SDS011;16861;52.294;7.760;2023-01-16T04:07:06;9.15;;;2.70;;
30020;SDS011;16861;52.294;7.760;2023-01-16T04:09:40;4.45;;;2.00;;
30020;SDS011;16861;52.294;7.760;2023-01-16T04:12:12;2.63;;;1.95;;
30020;SDS011;16861;52.294;7.760;2023-01-16T04:14:44;5.50;;;1.97;;
30020;SDS011;16861;52.294;7.760;2023-01-16T04:17:12;5.15;;;2.33;;
30020;SDS011;16861;52.294;7.760;2023-01-16T04:19:39;4.20;;;1.92;;
30020;SDS011;16861;52.294;7.760;2023-01-16T04:22:06;4.38;;;2.03;;
30020;SDS011;16861;52.294;7.760;2023-01-16T04:24:34;4.60;;;1.98;;
30020;SDS011;16861;52.294;7.760;2023-01-16T04:27:01;4.10;;;1.73;;
30020;SDS011;16861;52.294;7.760;2023-01-16T04:29:27;3.38;;;2.10;;
30020;SDS011;16861;52.294;7.760;2023-01-16T04:31:54;7.95;;;2.03;;
30020;SDS011;16861;52.294;7.760;2023-01-16T04:34:20;5.97;;;1.95;;
30020;SDS011;16861;52.294;7.760;2023-01-16T04:36:47;3.78;;;1.65;;
30020;SDS011;16861;52.294;7.760;2023-01-16T04:39:13;5.10;;;2.10;;
30020;SDS011;16861;52.294;7.760;2023-01-16T04:41:39;4.60;;;2.05;;
30020;SDS011;16861;52.294;7.760;2023-01-16T04:44:08;4.72;;;1.95;;
30020;SDS011;16861;52.294;7.760;2023-01-16T04:46:35;3.88;;;1.95;;
30020;SDS011;16861;52.294;7.760;2023-01-16T04:49:04;9.35;;;2.17;;
30020;SDS011;16861;52.294;7.760;2023-01-16T04:51:31;4.07;;;2.00;;
30020;SDS011;16861;52.294;7.760;2023-01-16T04:53:58;6.25;;;1.83;;
30020;SDS011;16861;52.294;7.760;2023-01-16T04:56:24;6.38;;;1.83;;
30020;SDS011;16861;52.294;7.760;2023-01-16T04:58:51;4.38;;;1.80;;
30020;SDS011;16861;52.294;7.760;2023-01-16T05:01:19;5.68;;;1.63;;
30020;SDS011;16861;52.294;7.760;2023-01-16T05:03:45;11.43;;;2.40;;
30020;SDS011;16861;52.294;7.760;2023-01-16T05:06:12;3.72;;;1.67;;
30020;SDS011;16861;52.294;7.760;2023-01-16T05:08:38;3.13;;;1.48;;
30020;SDS011;16861;52.294;7.760;2023-01-16T05:11:04;4.75;;;1.63;;
30020;SDS011;16861;52.294;7.760;2023-01-16T05:13:37;5.93;;;1.65;;
30020;SDS011;16861;52.294;7.760;2023-01-16T05:16:03;5.88;;;1.50;;
30020;SDS011;16861;52.294;7.760;2023-01-16T05:18:30;7.50;;;1.77;;
30020;SDS011;16861;52.294;7.760;2023-01-16T05:20:57;3.08;;;1.30;;
30020;SDS011;16861;52.294;7.760;2023-01-16T05:23:23;8.52;;;1.67;;
30020;SDS011;16861;52.294;7.760;2023-01-16T05:25:49;4.25;;;1.52;;
30020;SDS011;16861;52.294;7.760;2023-01-16T05:28:16;4.28;;;1.42;;
30020;SDS011;16861;52.294;7.760;2023-01-16T05:30:42;4.28;;;1.23;;
30020;SDS011;16861;52.294;7.760;2023-01-16T05:33:08;4.15;;;1.55;;
30020;SDS011;16861;52.294;7.760;2023-01-16T05:35:35;5.10;;;1.77;;
30020;SDS011;16861;52.294;7.760;2023-01-16T05:38:01;3.25;;;1.60;;
30020;SDS011;16861;52.294;7.760;2023-01-16T05:40:28;2.17;;;1.38;;
30020;SDS011;16861;52.294;7.760;2023-01-16T05:42:54;2.60;;;1.30;;
30020;SDS011;16861;52.294;7.760;2023-01-16T05:45:21;3.20;;;1.40;;
30020;SDS011;16861;52.294;7.760;2023-01-16T05:47:47;4.43;;;1.17;;
30020;SDS011;16861;52.294;7.760;2023-01-16T05:50:14;5.82;;;1.30;;
30020;SDS011;16861;52.294;7.760;2023-01-16T05:52:40;3.03;;;1.30;;
30020;SDS011;16861;52.294;7.760;2023-01-16T05:55:07;5.25;;;1.10;;
30020;SDS011;16861;52.294;7.760;2023-01-16T05:57:33;1.83;;;1.10;;
30020;SDS011;16861;52.294;7.760;2023-01-16T06:00:00;3.65;;;1.33;;
30020;SDS011;16861;52.294;7.760;2023-01-16T06:02:26;4.25;;;1.10;;
30020;SDS011;16861;52.294;7.760;2023-01-16T06:04:53;2.15;;;1.20;;
30020;SDS011;16861;52.294;7.760;2023-01-16T06:07:19;5.80;;;1.17;;
30020;SDS011;16861;52.294;7.760;2023-01-16T06:09:45;1.30;;;0.80;;
30020;SDS011;16861;52.294;7.760;2023-01-16T06:12:15;1.33;;;0.90;;
30020;SDS011;16861;52.294;7.760;2023-01-16T06:14:43;2.13;;;0.90;;
30020;SDS011;16861;52.294;7.760;2023-01-16T06:17:13;2.10;;;1.30;;
30020;SDS011;16861;52.294;7.760;2023-01-16T06:19:40;7.63;;;1.08;;
30020;SDS011;16861;52.294;7.760;2023-01-16T06:22:08;4.28;;;0.90;;
30020;SDS011;16861;52.294;7.760;2023-01-16T06:24:34;3.45;;;0.90;;
30020;SDS011;16861;52.294;7.760;2023-01-16T06:27:01;1.40;;;0.90;;
30020;SDS011;16861;52.294;7.760;2023-01-16T06:29:27;3.08;;;0.80;;
30020;SDS011;16861;52.294;7.760;2023-01-16T06:31:56;2.58;;;0.80;;
30020;SDS011;16861;52.294;7.760;2023-01-16T06:34:22;4.32;;;1.33;;
30020;SDS011;16861;52.294;7.760;2023-01-16T06:36:49;2.15;;;0.68;;
30020;SDS011;16861;52.294;7.760;2023-01-16T06:39:17;1.58;;;0.90;;
30020;SDS011;16861;52.294;7.760;2023-01-16T06:41:44;1.02;;;0.70;;
30020;SDS011;16861;52.294;7.760;2023-01-16T06:44:10;2.95;;;0.75;;
30020;SDS011;16861;52.294;7.760;2023-01-16T06:46:37;1.00;;;0.70;;
30020;SDS011;16861;52.294;7.760;2023-01-16T06:49:04;1.95;;;0.80;;
30020;SDS011;16861;52.294;7.760;2023-01-16T06:51:30;2.28;;;1.02;;
30020;SDS011;16861;52.294;7.760;2023-01-16T06:53:56;1.85;;;0.75;;
30020;SDS011;16861;52.294;7.760;2023-01-16T06:56:23;2.88;;;0.90;;
30020;SDS011;16861;52.294;7.760;2023-01-16T06:58:50;2.72;;;1.00;;
30020;SDS011;16861;52.294;7.760;2023-01-16T07:01:17;2.33;;;0.80;;
30020;SDS011;16861;52.294;7.760;2023-01-16T07:03:43;3.13;;;0.80;;
30020;SDS011;16861;52.294;7.760;2023-01-16T07:06:10;2.33;;;0.88;;
30020;SDS011;16861;52.294;7.760;2023-01-16T07:08:38;3.10;;;0.90;;
30020;SDS011;16861;52.294;7.760;2023-01-16T07:11:05;1.50;;;0.70;;
30020;SDS011;16861;52.294;7.760;2023-01-16T07:13:33;3.25;;;0.88;;
30020;SDS011;16861;52.294;7.760;2023-01-16T07:16:00;2.67;;;0.90;;
30020;SDS011;16861;52.294;7.760;2023-01-16T07:18:45;3.42;;;0.60;;
30020;SDS011;16861;52.294;7.760;2023-01-16T07:21:30;3.17;;;0.82;;
30020;SDS011;16861;52.294;7.760;2023-01-16T07:24:17;1.38;;;0.70;;
30020;SDS011;16861;52.294;7.760;2023-01-16T07:26:48;2.67;;;0.93;;
30020;SDS011;16861;52.294;7.760;2023-01-16T07:29:19;4.47;;;0.85;;
30020;SDS011;16861;52.294;7.760;2023-01-16T07:31:46;2.47;;;0.70;;
30020;SDS011;16861;52.294;7.760;2023-01-16T07:34:12;1.00;;;0.70;;
30020;SDS011;16861;52.294;7.760;2023-01-16T07:36:39;1.10;;;0.70;;
30020;SDS011;16861;52.294;7.760;2023-01-16T07:39:05;1.73;;;0.60;;
30020;SDS011;16861;52.294;7.760;2023-01-16T07:41:32;1.23;;;0.68;;
30020;SDS011;16861;52.294;7.760;2023-01-16T07:43:58;4.60;;;1.10;;
30020;SDS011;16861;52.294;7.760;2023-01-16T07:46:25;2.55;;;1.10;;
30020;SDS011;16861;52.294;7.760;2023-01-16T07:48:52;4.13;;;0.95;;
30020;SDS011;16861;52.294;7.760;2023-01-16T07:51:19;2.58;;;0.82;;
30020;SDS011;16861;52.294;7.760;2023-01-16T07:53:46;1.35;;;0.80;;
30020;SDS011;16861;52.294;7.760;2023-01-16T07:56:12;3.50;;;0.98;;
30020;SDS011;16861;52.294;7.760;2023-01-16T07:58:39;2.22;;;1.00;;
30020;SDS011;16861;52.294;7.760;2023-01-16T08:01:07;4.57;;;1.10;;
30020;SDS011;16861;52.294;7.760;2023-01-16T08:03:34;1.35;;;0.93;;
30020;SDS011;16861;52.294;7.760;2023-01-16T08:06:01;3.38;;;0.90;;
30020;SDS011;16861;52.294;7.760;2023-01-16T08:08:28;4.70;;;1.20;;
30020;SDS011;16861;52.294;7.760;2023-01-16T08:10:56;1.80;;;1.00;;
30020;SDS011;16861;52.294;7.760;2023-01-16T08:13:23;3.50;;;1.33;;
30020;SDS011;16861;52.294;7.760;2023-01-16T08:15:51;2.17;;;0.90;;
30020;SDS011;16861;52.294;7.760;2023-01-16T08:18:18;3.45;;;1.13;;
30020;SDS011;16861;52.294;7.760;2023-01-16T08:20:46;4.20;;;1.08;;
30020;SDS011;16861;52.294;7.760;2023-01-16T08:23:12;2.28;;;0.70;;
30020;SDS011;16861;52.294;7.760;2023-01-16T08:25:39;3.80;;;1.08;;
30020;SDS011;16861;52.294;7.760;2023-01-16T08:28:05;4.10;;;0.98;;
30020;SDS011;16861;52.294;7.760;2023-01-16T08:30:32;2.97;;;1.00;;
30020;SDS011;16861;52.294;7.760;2023-01-16T08:32:59;4.22;;;0.93;;
30020;SDS011;16861;52.294;7.760;2023-01-16T08:35:27;1.73;;;0.90;;
30020;SDS011;16861;52.294;7.760;2023-01-16T08:37:54;1.58;;;0.70;;
30020;SDS011;16861;52.294;7.760;2023-01-16T08:40:21;1.38;;;0.95;;
30020;SDS011;16861;52.294;7.760;2023-01-16T08:42:47;4.75;;;1.00;;
30020;SDS011;16861;52.294;7.760;2023-01-16T08:45:32;3.25;;;0.80;;
30020;SDS011;16861;52.294;7.760;2023-01-16T08:48:22;1.25;;;0.60;;
30020;SDS011;16861;52.294;7.760;2023-01-16T08:51:13;1.73;;;0.80;;
30020;SDS011;16861;52.294;7.760;2023-01-16T08:53:48;1.65;;;0.80;;
30020;SDS011;16861;52.294;7.760;2023-01-16T08:56:15;1.95;;;0.68;;
30020;SDS011;16861;52.294;7.760;2023-01-16T08:58:42;1.77;;;0.95;;
30020;SDS011;16861;52.294;7.760;2023-01-16T09:01:09;3.05;;;1.15;;
30020;SDS011;16861;52.294;7.760;2023-01-16T09:03:35;1.80;;;0.90;;
30020;SDS011;16861;52.294;7.760;2023-01-16T09:06:02;1.75;;;0.60;;
30020;SDS011;16861;52.294;7.760;2023-01-16T09:08:28;4.90;;;1.23;;
30020;SDS011;16861;52.294;7.760;2023-01-16T09:10:55;2.65;;;0.75;;
30020;SDS011;16861;52.294;7.760;2023-01-16T09:13:40;2.28;;;0.88;;
30020;SDS011;16861;52.294;7.760;2023-01-16T09:16:17;1.65;;;0.80;;
30020;SDS011;16861;52.294;7.760;2023-01-16T09:18:48;1.23;;;0.60;;
30020;SDS011;16861;52.294;7.760;2023-01-16T09:21:15;3.33;;;0.90;;
30020;SDS011;16861;52.294;7.760;2023-01-16T09:23:45;1.75;;;0.90;;
30020;SDS011;16861;52.294;7.760;2023-01-16T09:26:12;1.98;;;1.00;;
30020;SDS011;16861;52.294;7.760;2023-01-16T09:28:38;1.98;;;0.88;;
30020;SDS011;16861;52.294;7.760;2023-01-16T09:31:05;3.38;;;1.30;;
30020;SDS011;16861;52.294;7.760;2023-01-16T09:33:32;2.30;;;0.80;;
30020;SDS011;16861;52.294;7.760;2023-01-16T09:35:58;2.33;;;0.90;;
30020;SDS011;16861;52.294;7.760;2023-01-16T09:38:25;2.28;;;1.30;;
30020;SDS011;16861;52.294;7.760;2023-01-16T09:40:54;3.10;;;1.10;;
30020;SDS011;16861;52.294;7.760;2023-01-16T09:54:02;5.88;;;1.00;;
30020;SDS011;16861;52.294;7.760;2023-01-16T09:56:53;2.33;;;0.90;;
30020;SDS011;16861;52.294;7.760;2023-01-16T09:59:45;1.23;;;0.70;;
30020;SDS011;16861;52.294;7.760;2023-01-16T10:02:21;3.47;;;1.00;;
30020;SDS011;16861;52.294;7.760;2023-01-16T10:05:00;3.70;;;1.30;;
30020;SDS011;16861;52.294;7.760;2023-01-16T10:26:29;5.15;;;1.20;;
30020;SDS011;16861;52.294;7.760;2023-01-16T10:29:20;2.15;;;1.10;;
30020;SDS011;16861;52.294;7.760;2023-01-16T10:34:33;3.55;;;1.13;;
30020;SDS011;16861;52.294;7.760;2023-01-16T10:37:06;3.03;;;1.38;;
30020;SDS011;16861;52.294;7.760;2023-01-16T10:39:35;4.53;;;1.50;;
30020;SDS011;16861;52.294;7.760;2023-01-16T10:47:46;4.97;;;1.50;;
30020;SDS011;16861;52.294;7.760;2023-01-16T10:50:31;2.17;;;1.52;;
30020;SDS011;16861;52.294;7.760;2023-01-16T10:53:06;4.22;;;1.55;;
30020;SDS011;16861;52.294;7.760;2023-01-16T10:55:36;4.07;;;1.30;;
30020;SDS011;16861;52.294;7.760;2023-01-16T10:58:28;3.25;;;1.25;;
30020;SDS011;16861;52.294;7.760;2023-01-16T11:01:12;2.78;;;1.70;;
30020;SDS011;16861;52.294;7.760;2023-01-16T11:03:45;5.53;;;1.70;;
30020;SDS011;16861;52.294;7.760;2023-01-16T11:06:14;3.13;;;1.65;;
30020;SDS011;16861;52.294;7.760;2023-01-16T11:08:52;4.38;;;1.55;;
30020;SDS011;16861;52.294;7.760;2023-01-16T11:11:20;5.07;;;1.67;;
30020;SDS011;16861;52.294;7.760;2023-01-16T11:17:26;4.25;;;1.80;;
30020;SDS011;16861;52.294;7.760;2023-01-16T11:20:16;3.25;;;1.60;;
30020;SDS011;16861;52.294;7.760;2023-01-16T11:22:52;3.60;;;1.75;;
30020;SDS011;16861;52.294;7.760;2023-01-16T11:25:25;3.35;;;1.75;;
30020;SDS011;16861;52.294;7.760;2023-01-16T11:27:55;2.78;;;1.48;;
30020;SDS011;16861;52.294;7.760;2023-01-16T11:30:33;3.53;;;1.80;;
30020;SDS011;16861;52.294;7.760;2023-01-16T11:33:04;4.30;;;1.70;;
30020;SDS011;16861;52.294;7.760;2023-01-16T11:38:04;4.63;;;1.10;;
30020;SDS011;16861;52.294;7.760;2023-01-16T11:40:36;4.05;;;1.10;;
30020;SDS011;16861;52.294;7.760;2023-01-16T11:43:13;2.05;;;1.10;;
30020;SDS011;16861;52.294;7.760;2023-01-16T11:46:04;4.15;;;1.48;;
30020;SDS011;16861;52.294;7.760;2023-01-16T11:48:42;3.88;;;1.30;;
30020;SDS011;16861;52.294;7.760;2023-01-16T11:51:17;3.47;;;1.23;;
30020;SDS011;16861;52.294;7.760;2023-01-16T11:53:48;2.72;;;1.50;;
30020;SDS011;16861;52.294;7.760;2023-01-16T11:59:15;1.45;;;0.90;;
30020;SDS011;16861;52.294;7.760;2023-01-16T12:04:36;1.45;;;1.08;;
30020;SDS011;16861;52.294;7.760;2023-01-16T12:07:23;1.80;;;0.90;;
30020;SDS011;16861;52.294;7.760;2023-01-16T12:10:05;2.05;;;0.82;;
30020;SDS011;16861;52.294;7.760;2023-01-16T12:13:03;5.20;;;0.95;;
30020;SDS011;16861;52.294;7.760;2023-01-16T12:15:56;1.42;;;0.60;;
30020;SDS011;16861;52.294;7.760;2023-01-16T12:21:16;0.57;;;0.57;;
30020;SDS011;16861;52.294;7.760;2023-01-16T12:23:49;1.95;;;0.70;;
30020;SDS011;16861;52.294;7.760;2023-01-16T12:26:54;0.88;;;0.70;;
30020;SDS011;16861;52.294;7.760;2023-01-16T12:34:59;0.50;;;0.47;;
30020;SDS011;16861;52.294;7.760;2023-01-16T12:38:30;1.25;;;0.73;;
30020;SDS011;16861;52.294;7.760;2023-01-16T12:40:48;0.40;;;0.40;;
30020;SDS011;16861;52.294;7.760;2023-01-16T12:46:43;1.65;;;0.65;;
30020;SDS011;16861;52.294;7.760;2023-01-16T12:52:08;0.77;;;0.30;;
30020;SDS011;16861;52.294;7.760;2023-01-16T12:58:02;1.02;;;0.50;;
30020;SDS011;16861;52.294;7.760;2023-01-16T13:00:40;1.13;;;0.60;;
30020;SDS011;16861;52.294;7.760;2023-01-16T13:05:51;0.75;;;0.52;;
30020;SDS011;16861;52.294;7.760;2023-01-16T13:08:31;0.38;;;0.35;;
30020;SDS011;16861;52.294;7.760;2023-01-16T13:11:04;0.82;;;0.47;;
30020;SDS011;16861;52.294;7.760;2023-01-16T13:13:58;0.47;;;0.45;;
30020;SDS011;16861;52.294;7.760;2023-01-16T13:16:52;0.57;;;0.40;;
30020;SDS011;16861;52.294;7.760;2023-01-16T13:19:20;0.63;;;0.50;;
30020;SDS011;16861;52.294;7.760;2023-01-16T13:24:38;0.45;;;0.43;;
30020;SDS011;16861;52.294;7.760;2023-01-16T13:27:11;1.50;;;0.60;;
30020;SDS011;16861;52.294;7.760;2023-01-16T13:29:42;0.45;;;0.40;;
30020;SDS011;16861;52.294;7.760;2023-01-16T13:32:24;0.47;;;0.40;;
30020;SDS011;16861;52.294;7.760;2023-01-16T13:35:03;0.47;;;0.45;;
30020;SDS011;16861;52.294;7.760;2023-01-16T13:43:20;0.77;;;0.40;;
30020;SDS011;16861;52.294;7.760;2023-01-16T13:46:11;1.38;;;0.40;;
30020;SDS011;16861;52.294;7.760;2023-01-16T13:48:39;0.57;;;0.50;;
30020;SDS011;16861;52.294;7.760;2023-01-16T13:51:13;0.60;;;0.52;;
30020;SDS011;16861;52.294;7.760;2023-01-16T13:53:41;0.50;;;0.50;;
30020;SDS011;16861;52.294;7.760;2023-01-16T13:56:16;0.93;;;0.50;;
30020;SDS011;16861;52.294;7.760;2023-01-16T13:58:48;1.25;;;0.38;;
30020;SDS011;16861;52.294;7.760;2023-01-16T14:01:28;0.85;;;0.50;;
30020;SDS011;16861;52.294;7.760;2023-01-16T14:18:36;0.40;;;0.40;;
30020;SDS011;16861;52.294;7.760;2023-01-16T14:21:03;1.45;;;0.70;;
30020;SDS011;16861;52.294;7.760;2023-01-16T14:23:35;1.42;;;0.57;;
30020;SDS011;16861;52.294;7.760;2023-01-16T14:29:25;0.57;;;0.40;;
30020;SDS011;16861;52.294;7.760;2023-01-16T14:37:39;0.50;;;0.40;;
30020;SDS011;16861;52.294;7.760;2023-01-16T14:42:36;0.65;;;0.60;;
30020;SDS011;16861;52.294;7.760;2023-01-16T14:46:25;1.50;;;0.50;;
30020;SDS011;16861;52.294;7.760;2023-01-16T14:48:58;1.92;;;0.57;;
30020;SDS011;16861;52.294;7.760;2023-01-16T14:52:10;0.50;;;0.50;;
30020;SDS011;16861;52.294;7.760;2023-01-16T14:54:55;2.10;;;0.80;;
30020;SDS011;16861;52.294;7.760;2023-01-16T14:57:40;0.75;;;0.60;;
30020;SDS011;16861;52.294;7.760;2023-01-16T15:02:43;0.63;;;0.50;;
30020;SDS011;16861;52.294;7.760;2023-01-16T15:05:52;0.98;;;0.57;;
30020;SDS011;16861;52.294;7.760;2023-01-16T15:08:35;0.65;;;0.60;;
30020;SDS011;16861;52.294;7.760;2023-01-16T15:11:07;1.07;;;0.57;;
30020;SDS011;16861;52.294;7.760;2023-01-16T15:14:05;0.95;;;0.75;;
30020;SDS011;16861;52.294;7.760;2023-01-16T15:17:03;1.13;;;0.60;;
30020;SDS011;16861;52.294;7.760;2023-01-16T15:22:57;1.17;;;0.45;;
30020;SDS011;16861;52.294;7.760;2023-01-16T15:26:08;0.57;;;0.52;;
30020;SDS011;16861;52.294;7.760;2023-01-16T15:30:51;0.93;;;0.63;;
30020;SDS011;16861;52.294;7.760;2023-01-16T15:33:21;2.78;;;0.80;;
30020;SDS011;16861;52.294;7.760;2023-01-16T15:36:13;2.78;;;0.75;;
30020;SDS011;16861;52.294;7.760;2023-01-16T15:38:46;2.15;;;0.93;;
30020;SDS011;16861;52.294;7.760;2023-01-16T15:41:17;0.68;;;0.68;;
30020;SDS011;16861;52.294;7.760;2023-01-16T15:43:46;1.95;;;0.80;;
30020;SDS011;16861;52.294;7.760;2023-01-16T15:51:55;1.10;;;0.70;;
30020;SDS011;16861;52.294;7.760;2023-01-16T15:54:22;1.60;;;0.82;;
30020;SDS011;16861;52.294;7.760;2023-01-16T15:56:49;0.57;;;0.55;;
30020;SDS011;16861;52.294;7.760;2023-01-16T15:59:25;1.17;;;0.90;;
30020;SDS011;16861;52.294;7.760;2023-01-16T16:04:58;0.60;;;0.50;;
30020;SDS011;16861;52.294;7.760;2023-01-16T16:07:27;0.68;;;0.57;;
30020;SDS011;16861;52.294;7.760;2023-01-16T16:09:56;0.80;;;0.60;;
30020;SDS011;16861;52.294;7.760;2023-01-16T16:12:26;1.27;;;0.80;;
30020;SDS011;16861;52.294;7.760;2023-01-16T16:15:14;1.98;;;0.70;;
30020;SDS011;16861;52.294;7.760;2023-01-16T16:18:14;0.80;;;0.60;;
30020;SDS011;16861;52.294;7.760;2023-01-16T16:20:42;0.60;;;0.52;;
30020;SDS011;16861;52.294;7.760;2023-01-16T16:23:13;1.20;;;0.80;;
30020;SDS011;16861;52.294;7.760;2023-01-16T16:33:26;0.80;;;0.80;;
30020;SDS011;16861;52.294;7.760;2023-01-16T16:35:55;2.97;;;1.30;;
30020;SDS011;16861;52.294;7.760;2023-01-16T16:38:31;1.10;;;1.00;;
30020;SDS011;16861;52.294;7.760;2023-01-16T16:44:06;1.45;;;1.10;;
30020;SDS011;16861;52.294;7.760;2023-01-16T16:49:25;1.20;;;1.10;;
30020;SDS011;16861;52.294;7.760;2023-01-16T16:51:50;2.00;;;1.00;;
30020;SDS011;16861;52.294;7.760;2023-01-16T16:54:17;1.15;;;1.05;;
30020;SDS011;16861;52.294;7.760;2023-01-16T16:56:46;1.42;;;1.17;;
30020;SDS011;16861;52.294;7.760;2023-01-16T16:59:48;1.92;;;1.30;;
30020;SDS011;16861;52.294;7.760;2023-01-16T17:04:35;2.58;;;1.08;;
30020;SDS011;16861;52.294;7.760;2023-01-16T17:07:01;1.40;;;1.30;;
30020;SDS011;16861;52.294;7.760;2023-01-16T17:09:28;2.47;;;1.20;;
30020;SDS011;16861;52.294;7.760;2023-01-16T17:11:58;1.77;;;1.40;;
30020;SDS011;16861;52.294;7.760;2023-01-16T17:14:37;2.53;;;1.33;;
30020;SDS011;16861;52.294;7.760;2023-01-16T17:17:04;1.80;;;1.20;;
30020;SDS011;16861;52.294;7.760;2023-01-16T17:19:31;1.42;;;1.20;;
30020;SDS011;16861;52.294;7.760;2023-01-16T17:21:58;2.08;;;1.30;;
30020;SDS011;16861;52.294;7.760;2023-01-16T17:24:24;1.15;;;1.05;;
30020;SDS011;16861;52.294;7.760;2023-01-16T17:26:50;1.70;;;1.05;;
30020;SDS011;16861;52.294;7.760;2023-01-16T17:29:17;1.60;;;1.13;;
30020;SDS011;16861;52.294;7.760;2023-01-16T17:31:44;1.20;;;1.10;;
30020;SDS011;16861;52.294;7.760;2023-01-16T17:34:12;1.63;;;1.27;;
30020;SDS011;16861;52.294;7.760;2023-01-16T17:36:40;1.98;;;1.45;;
30020;SDS011;16861;52.294;7.760;2023-01-16T17:39:07;2.25;;;1.33;;
30020;SDS011;16861;52.294;7.760;2023-01-16T17:41:35;1.83;;;1.40;;
30020;SDS011;16861;52.294;7.760;2023-01-16T17:44:14;2.03;;;1.50;;
30020;SDS011;16861;52.294;7.760;2023-01-16T17:47:01;2.55;;;1.67;;
30020;SDS011;16861;52.294;7.760;2023-01-16T17:49:27;1.70;;;1.10;;
30020;SDS011;16861;52.294;7.760;2023-01-16T17:51:54;1.92;;;1.13;;
30020;SDS011;16861;52.294;7.760;2023-01-16T17:54:20;1.30;;;1.15;;
30020;SDS011;16861;52.294;7.760;2023-01-16T17:57:06;2.03;;;1.50;;
30020;SDS011;16861;52.294;7.760;2023-01-16T17:59:32;2.33;;;1.48;;
30020;SDS011;16861;52.294;7.760;2023-01-16T18:01:58;1.85;;;1.23;;
30020;SDS011;16861;52.294;7.760;2023-01-16T18:04:25;2.33;;;1.38;;
30020;SDS011;16861;52.294;7.760;2023-01-16T18:06:57;1.33;;;1.23;;
30020;SDS011;16861;52.294;7.760;2023-01-16T18:09:24;2.65;;;1.33;;
30020;SDS011;16861;52.294;7.760;2023-01-16T18:11:52;1.30;;;1.20;;
30020;SDS011;16861;52.294;7.760;2023-01-16T18:14:50;1.45;;;1.17;;
30020;SDS011;16861;52.294;7.760;2023-01-16T18:17:35;5.13;;;1.05;;
30020;SDS011;16861;52.294;7.760;2023-01-16T18:20:02;1.75;;;1.17;;
30020;SDS011;16861;52.294;7.760;2023-01-16T18:22:30;1.30;;;1.05;;
30020;SDS011;16861;52.294;7.760;2023-01-16T18:25:00;2.13;;;1.30;;
30020;SDS011;16861;52.294;7.760;2023-01-16T18:27:27;1.30;;;1.13;;